createdAt,value
2023-03-22T00:03:17.517Z,38.97
2023-03-22T00:07:17.626Z,38.92
2023-03-22T00:11:17.711Z,38.93
2023-03-22T00:15:17.836Z,38.92
2023-03-22T00:19:17.928Z,38.91
2023-03-22T00:23:17.975Z,38.86
2023-03-22T00:27:18.017Z,38.86
2023-03-22T00:31:18.039Z,38.82
2023-03-22T00:35:20.656Z,38.84
2023-03-22T00:39:18.665Z,38.82
2023-03-22T00:43:18.232Z,38.78
2023-03-22T00:47:18.130Z,38.81
2023-03-22T00:51:18.195Z,38.81
2023-03-22T00:55:18.102Z,38.75
2023-03-22T00:59:18.104Z,38.69
2023-03-22T01:03:18.120Z,38.72
2023-03-22T01:07:18.066Z,38.71
2023-03-22T01:11:18.028Z,38.70
2023-03-22T01:15:17.994Z,38.68
2023-03-22T01:19:18.082Z,38.69
2023-03-22T01:23:18.030Z,38.63
2023-03-22T01:27:17.956Z,38.62
2023-03-22T01:31:18.043Z,38.61
2023-03-22T01:35:17.895Z,38.61
2023-03-22T01:39:17.871Z,38.60
2023-03-22T01:43:17.869Z,38.57
2023-03-22T01:47:17.833Z,38.55
2023-03-22T01:51:17.857Z,38.56
2023-03-22T01:55:17.860Z,38.53
2023-03-22T01:59:17.784Z,38.51
2023-03-22T02:03:17.895Z,38.52
2023-03-22T02:07:20.667Z,38.48
2023-03-22T02:11:18.636Z,38.48
2023-03-22T02:15:17.724Z,38.48
2023-03-22T02:19:17.752Z,38.45
2023-03-22T02:23:17.739Z,38.45
2023-03-22T02:27:17.636Z,38.43
2023-03-22T02:31:17.639Z,38.42
2023-03-22T02:35:20.319Z,38.43
2023-03-22T02:39:17.509Z,38.38
2023-03-22T02:43:17.482Z,38.41
2023-03-22T02:47:17.400Z,38.37
2023-03-22T02:51:17.371Z,38.36
2023-03-22T02:55:17.344Z,38.35
2023-03-22T02:59:17.352Z,38.33
2023-03-22T03:03:17.265Z,38.32
2023-03-22T03:07:17.254Z,38.31
2023-03-22T03:11:17.235Z,38.27
2023-03-22T03:15:17.161Z,38.29
2023-03-22T03:19:17.125Z,38.27
2023-03-22T03:23:17.121Z,38.30
2023-03-22T03:27:17.189Z,38.28
2023-03-22T03:31:17.713Z,38.29
2023-03-22T03:35:17.144Z,38.24
2023-03-22T03:39:16.922Z,38.24
2023-03-22T03:43:16.898Z,38.21
2023-03-22T03:47:16.861Z,38.22
2023-03-22T03:51:16.844Z,38.22
2023-03-22T03:55:17.212Z,38.18
2023-03-22T03:59:16.753Z,38.16
2023-03-22T04:03:16.819Z,38.15
2023-03-22T04:07:16.698Z,38.15
2023-03-22T04:11:16.708Z,38.17
2023-03-22T04:15:16.648Z,38.14
2023-03-22T04:19:16.614Z,38.13
2023-03-22T04:23:16.518Z,38.13
2023-03-22T04:27:16.498Z,38.11
2023-03-22T04:31:16.541Z,38.13
2023-03-22T04:35:16.510Z,38.10
2023-03-22T04:39:16.415Z,38.11
2023-03-22T04:43:16.385Z,38.08
2023-03-22T04:47:16.333Z,38.08
2023-03-22T04:51:16.329Z,38.06
2023-03-22T04:55:16.292Z,38.05
2023-03-22T04:59:16.234Z,38.06
2023-03-22T05:03:16.204Z,38.02
2023-03-22T05:07:16.237Z,38.04
2023-03-22T05:11:16.109Z,38.02
2023-03-22T05:15:16.779Z,37.99
2023-03-22T05:19:16.036Z,37.96
2023-03-22T05:23:16.018Z,37.99
2023-03-22T05:27:16.003Z,37.87
2023-03-22T05:31:16.280Z,37.80
2023-03-22T05:35:15.915Z,37.51
2023-03-22T05:39:16.193Z,37.26
2023-03-22T05:43:16.469Z,36.81
2023-03-22T05:47:16.541Z,36.52
2023-03-22T05:51:16.659Z,36.22
2023-03-22T05:55:16.711Z,36.14
2023-03-22T05:59:16.788Z,36.00
2023-03-22T06:03:17.086Z,35.84
2023-03-22T06:07:16.782Z,35.76
2023-03-22T06:11:16.771Z,35.63
2023-03-22T06:15:16.892Z,35.54
2023-03-22T06:19:18.306Z,35.51
2023-03-22T06:23:16.844Z,35.43
2023-03-22T06:27:17.329Z,35.31
2023-03-22T06:31:18.484Z,35.21
2023-03-22T06:35:16.958Z,35.26
2023-03-22T06:39:17.407Z,36.07
2023-03-22T06:43:30.810Z,38.00
2023-03-22T06:47:17.183Z,39.50
2023-03-22T06:51:18.174Z,40.84
2023-03-22T06:55:18.757Z,40.92
2023-03-22T07:03:35.982Z,41.47
2023-03-22T07:07:35.559Z,41.33
2023-03-22T07:15:54.352Z,41.35
2023-03-22T07:19:54.505Z,41.32
2023-03-22T07:23:54.696Z,40.83
2023-03-22T07:27:54.665Z,41.05
2023-03-22T07:31:54.617Z,40.78
2023-03-22T07:35:55.083Z,40.30
2023-03-22T07:39:56.833Z,39.67
2023-03-22T07:44:04.827Z,40.36
2023-03-22T07:47:55.849Z,40.23
2023-03-22T07:51:54.606Z,38.81
2023-03-22T07:55:54.628Z,39.67
2023-03-22T07:59:55.044Z,41.52
2023-03-22T08:03:55.124Z,39.75
2023-03-22T08:07:54.891Z,38.56
2023-03-22T08:11:54.754Z,38.94
2023-03-22T08:15:55.087Z,38.17
2023-03-22T08:19:54.833Z,37.82
2023-03-22T08:23:54.789Z,37.98
2023-03-22T08:27:54.952Z,37.55
2023-03-22T08:31:55.859Z,36.88
2023-03-22T08:35:54.838Z,37.00
2023-03-22T08:39:54.766Z,35.21
2023-03-22T08:43:54.959Z,34.78
2023-03-22T08:47:55.257Z,34.35
2023-03-22T08:51:55.207Z,34.34
2023-03-22T08:55:55.290Z,33.53
2023-03-22T08:59:55.491Z,32.84
2023-03-22T09:03:55.326Z,32.90
2023-03-22T09:08:00.590Z,32.23
2023-03-22T09:11:56.314Z,31.99
2023-03-22T09:15:55.366Z,31.92
2023-03-22T09:20:09.397Z,32.22
2023-03-22T09:23:56.489Z,32.29
2023-03-22T09:27:59.954Z,31.36
2023-03-22T09:31:55.750Z,31.22
2023-03-22T09:35:57.101Z,30.84
2023-03-22T09:39:57.048Z,30.79
2023-03-22T09:48:14.150Z,33.30
2023-03-22T09:52:13.992Z,34.09
2023-03-22T09:56:14.595Z,34.72
2023-03-22T10:00:13.699Z,35.26
2023-03-22T10:04:13.857Z,35.98
2023-03-22T10:08:13.615Z,36.19
2023-03-22T10:12:14.801Z,36.43
2023-03-22T10:16:13.837Z,36.05
2023-03-22T10:20:14.228Z,36.76
2023-03-22T10:24:14.149Z,36.96
2023-03-22T10:28:14.369Z,37.51
2023-03-22T10:32:14.966Z,37.99
2023-03-22T10:36:14.539Z,38.22
2023-03-22T10:40:14.779Z,34.83
2023-03-22T10:44:15.620Z,33.33
2023-03-22T10:48:16.268Z,32.32
2023-03-22T10:52:15.475Z,32.30
2023-03-22T10:56:14.822Z,30.85
2023-03-22T11:00:15.186Z,30.41
2023-03-22T11:04:14.769Z,30.25
2023-03-22T11:08:14.638Z,29.48
2023-03-22T11:12:14.598Z,28.93
2023-03-22T11:16:14.782Z,29.09
2023-03-22T11:20:14.608Z,28.79
2023-03-22T11:24:14.873Z,28.65
2023-03-22T11:28:14.542Z,28.57
2023-03-22T11:32:14.451Z,28.63
2023-03-22T11:36:14.464Z,28.53
2023-03-22T11:40:14.591Z,28.48
2023-03-22T11:44:14.726Z,28.49
2023-03-22T11:48:15.034Z,28.61
2023-03-22T11:52:14.984Z,28.16
2023-03-22T11:56:15.217Z,27.36
2023-03-22T12:00:15.233Z,27.62
2023-03-22T12:04:15.168Z,26.84
2023-03-22T12:08:15.102Z,26.99
2023-03-22T12:12:15.150Z,27.19
2023-03-22T12:16:15.212Z,26.72
2023-03-22T12:20:15.026Z,28.11
2023-03-22T12:24:14.924Z,28.41
2023-03-22T12:28:14.886Z,28.56
2023-03-22T12:32:14.862Z,28.76
2023-03-22T12:36:14.909Z,28.86
2023-03-22T12:40:14.850Z,29.02
2023-03-22T12:44:15.058Z,29.26
2023-03-22T12:48:15.232Z,29.48
2023-03-22T12:52:15.337Z,29.64
2023-03-22T12:56:15.594Z,29.73
2023-03-22T13:00:15.804Z,29.92
2023-03-22T13:04:16.038Z,30.02
2023-03-22T13:08:16.197Z,30.22
2023-03-22T13:12:16.393Z,30.34
2023-03-22T13:16:16.597Z,30.41
2023-03-22T13:20:16.780Z,30.51
2023-03-22T13:24:16.959Z,30.61
2023-03-22T13:28:17.332Z,30.73
2023-03-22T13:32:17.403Z,30.87
2023-03-22T13:36:17.505Z,30.92
2023-03-22T13:40:17.665Z,30.99
2023-03-22T13:44:17.893Z,31.06
2023-03-22T13:48:18.698Z,31.13
2023-03-22T13:52:18.238Z,31.16
2023-03-22T13:56:18.440Z,31.23
2023-03-22T14:00:20.417Z,31.22
2023-03-22T14:04:18.769Z,31.25
2023-03-22T14:08:18.969Z,31.31
2023-03-22T14:12:19.228Z,31.38
2023-03-22T14:16:19.345Z,31.38
2023-03-22T14:20:19.535Z,31.38
2023-03-22T14:49:20.700Z,31.66
2023-03-22T14:53:20.918Z,31.64
2023-03-22T14:57:28.374Z,31.66
2023-03-22T15:01:21.895Z,31.68
2023-03-22T15:05:21.023Z,31.76
2023-03-22T15:09:20.817Z,31.80
2023-03-22T15:13:21.436Z,31.84
2023-03-22T15:17:21.165Z,31.85
2023-03-22T15:21:21.458Z,31.94
2023-03-22T15:25:21.494Z,32.01
2023-03-22T15:29:21.740Z,32.07
2023-03-22T15:33:21.834Z,32.18
2023-03-22T15:37:22.014Z,32.67
2023-03-22T15:41:22.224Z,32.94
2023-03-22T15:45:23.081Z,35.09
2023-03-22T15:49:22.543Z,35.66
2023-03-22T15:53:22.745Z,36.29
2023-03-22T15:57:23.024Z,35.86
2023-03-22T16:01:23.160Z,35.93
2023-03-22T16:05:23.309Z,35.97
2023-03-22T16:09:23.490Z,35.94
2023-03-22T16:13:23.658Z,35.91
2023-03-22T16:17:23.911Z,35.85
2023-03-22T16:21:24.021Z,35.78
2023-03-22T16:25:24.246Z,35.68
2023-03-22T16:29:24.989Z,35.79
2023-03-22T16:33:24.686Z,35.73
2023-03-22T16:37:24.897Z,35.70
2023-03-22T16:41:25.130Z,35.66
2023-03-22T16:45:25.065Z,35.68
2023-03-22T16:49:25.021Z,35.64
2023-03-22T16:53:25.092Z,35.62
2023-03-22T16:57:24.995Z,35.60
2023-03-22T17:01:25.092Z,35.52
2023-03-22T17:05:25.019Z,35.51
2023-03-22T17:09:25.055Z,35.55
2023-03-22T17:13:25.032Z,35.49
2023-03-22T17:17:26.004Z,35.51
2023-03-22T17:21:24.900Z,35.50
2023-03-22T17:25:24.844Z,35.52
2023-03-22T17:29:24.973Z,35.50
2023-03-22T17:33:24.896Z,35.44
2023-03-22T17:37:25.131Z,35.44
2023-03-22T17:41:24.973Z,35.42
2023-03-22T17:45:27.442Z,35.45
2023-03-22T17:49:25.239Z,35.45
2023-03-22T17:54:04.934Z,35.44
2023-03-22T18:01:26.263Z,35.44
2023-03-22T18:05:31.943Z,35.41
2023-03-22T18:09:26.119Z,35.39
2023-03-22T18:13:25.146Z,35.37
2023-03-22T18:17:25.099Z,35.34
2023-03-22T18:21:25.072Z,35.34
2023-03-22T18:25:26.976Z,35.32
2023-03-22T18:29:25.976Z,35.32
2023-03-22T18:33:24.971Z,35.31
2023-03-22T18:41:40.886Z,35.25
2023-03-22T18:45:32.489Z,35.31
2023-03-22T18:49:25.846Z,35.29
2023-03-22T18:53:24.787Z,35.20
2023-03-22T18:57:25.915Z,35.18
2023-03-22T19:01:25.707Z,35.17
2023-03-22T19:05:24.665Z,35.12
2023-03-22T19:09:24.613Z,35.07
2023-03-22T19:13:24.589Z,35.04
2023-03-22T19:17:24.703Z,35.02
2023-03-22T19:21:32.349Z,34.99
2023-03-22T19:25:25.486Z,34.97
2023-03-22T19:29:24.504Z,34.98
2023-03-22T19:33:34.747Z,34.91
2023-03-22T19:37:25.412Z,34.84
2023-03-22T19:45:25.356Z,34.76
2023-03-22T19:49:24.303Z,34.74
2023-03-22T19:54:12.109Z,34.66
2023-03-22T19:57:25.214Z,34.59
2023-03-22T20:01:24.205Z,34.57
2023-03-22T20:05:24.180Z,34.56
2023-03-22T20:09:24.109Z,34.45
2023-03-22T20:13:24.080Z,34.40
2023-03-22T20:17:26.388Z,34.35
2023-03-22T20:21:24.229Z,34.41
2023-03-22T20:25:24.582Z,34.37
2023-03-22T20:29:24.430Z,34.40
2023-03-22T20:33:24.456Z,34.38
2023-03-22T20:37:24.529Z,34.40
2023-03-22T20:41:24.588Z,34.43
2023-03-22T20:45:24.682Z,34.47
2023-03-22T20:49:24.701Z,34.49
2023-03-22T20:53:24.769Z,34.53
2023-03-22T20:57:24.844Z,34.51
2023-03-22T21:01:24.920Z,34.60
2023-03-22T21:05:24.979Z,34.58
2023-03-22T21:09:25.576Z,34.64
2023-03-22T21:13:25.176Z,34.63
2023-03-22T21:17:25.261Z,34.64
2023-03-22T21:21:25.345Z,34.67
2023-03-22T21:25:25.415Z,34.69
2023-03-22T21:29:25.547Z,34.71
2023-03-22T21:33:25.620Z,34.74
2023-03-22T21:37:25.695Z,34.72
2023-03-22T21:41:25.811Z,34.79
2023-03-22T21:45:25.882Z,34.82
2023-03-22T21:49:26.018Z,34.84
2023-03-22T21:53:26.095Z,34.79
2023-03-22T21:57:26.272Z,34.83
2023-03-22T22:01:26.623Z,34.89
2023-03-22T22:05:26.445Z,34.90
2023-03-22T22:09:26.634Z,34.90
2023-03-22T22:13:27.616Z,34.90
2023-03-22T22:17:26.751Z,34.92
2023-03-22T22:21:26.823Z,34.91
2023-03-22T22:25:27.008Z,34.89
2023-03-22T22:29:27.111Z,34.97
2023-03-22T22:33:27.251Z,34.96
2023-03-22T22:37:27.324Z,34.97
2023-03-22T22:41:27.431Z,34.97
2023-03-22T22:45:27.574Z,34.99
2023-03-22T22:49:27.657Z,35.01
2023-03-22T22:53:27.732Z,35.02
2023-03-22T22:57:27.854Z,35.02
2023-03-22T23:01:27.977Z,35.04
2023-03-22T23:05:28.085Z,35.03
2023-03-22T23:09:28.231Z,35.06
2023-03-22T23:13:28.305Z,35.05
2023-03-22T23:17:28.669Z,35.11
2023-03-22T23:21:28.549Z,35.06
2023-03-22T23:25:28.692Z,35.05
2023-03-22T23:29:28.918Z,35.06
2023-03-22T23:33:28.909Z,35.08
2023-03-22T23:37:29.069Z,35.12
2023-03-22T23:41:29.606Z,35.10
2023-03-22T23:45:29.270Z,35.13
2023-03-22T23:49:29.380Z,35.14
2023-03-22T23:53:29.570Z,35.11
2023-03-22T23:57:29.724Z,35.13
